Hauptseite
METAR-TAF:

METAR-TAF

Flughäfen :

Norwich International Airport

Norwich, England

Breite: 52-38N, Länge: 001-18E, Höhe: 14 m

Beobachtung

Neuester Wetterbericht von vor 32 Minuten, um 04:50 UTC
Wind 3 kt aus unterschiedlichen Richtungen
Temperatur 5°C
Luftfeuchtigkeit 87%
Luftdruck 1009 hPa
Sichtweite 10 km oder mehr

METAR: EGSH 170450Z AUTO VRB03KT 9999 FEW020/// BKN026/// 05/03 Q1009

Zeit: 05:22 (05:22 UTC)

Prognose

Neuester Wetterbericht von vor 3 Stunden und 25 Minuten, um 01:57 UTC
Gültige Prognose vom 17 um 03 UTC bis 17 um 12 UTC
Wind 5 kt aus Südwest
Sichtweite 10 km oder mehr
Aufgelockert bewölkt in der Höhe von 3000 ft
Zeitweise
vom 17 um 03 UTC bis 17 um 12 UTC
Sichtweite: 6000 m
Wahrscheinlichkeit 30%
vom 17 um 03 UTC bis 17 um 10 UTC
Sichtweite: 4000 m
feuchter Dunst

TAF: EGSH 170157Z 1703/1712 22005KT 9999 SCT030 TEMPO 1703/1712 6000 PROB30 1703/1710 4000 BR

Wetterbeobachtungen und Prognosen von mehr als 4000 Flughäfen (METAR und TAF Bericht).

Die verfügbaren Stationen werden durch gelbe und rote Markierungen auf der Karte dargestellt.

Führen Sie die Maus auf sie, um den Namen der Station zu sehen.

Darauf klicken, um die Beobachtung von Wetterbeobachtungen und Prognosen zu sehen.

Um die Karte zu ändern : klicken Sie auf den grünen Tasten mit einem schwarzen Kreuz Zum Vergrößern, auf den grünen Button mit einem Gedankenstrich zu verkleinern, oder auf die grünen Pfeile für benachbarte Karten.


METAR-TAF: